Wednesday, June 20, 2018, 3:40 AM EDT

KPOU, Poughkeepsie Dutchess Cty

Location: Wappingers Falls, NY, United States Lat: 41.633
Local Time: 3:40 AM EDT ( 7:40 GMT) Lon: -73.883
Time Zone: US/Eastern Elev: 167 ft

Show me the last for .
Show Decoded

2018-06-20 02:53 METAR KPOU 200653Z AUTO 00000KT 10SM CLR 15/13 A2989 RMK AO2 SLP117 T01500128 =
2018-06-20 01:53 METAR KPOU 200553Z AUTO 00000KT 10SM CLR 16/13 A2987 RMK AO2 SLP112 T01560133
                 10250 20144 58002 =
2018-06-20 00:53 METAR KPOU 200453Z AUTO 00000KT 10SM CLR 16/13 A2988 RMK AO2 SLP115 T01560128
                 402940156 =
2018-06-19 23:53 METAR KPOU 200353Z AUTO 00000KT 10SM CLR 17/14 A2988 RMK AO2 SLP114 T01720139 =
2018-06-19 22:53 METAR KPOU 200253Z AUTO 02003KT 10SM CLR 18/14 A2988 RMK AO2 SLP115 T01780139
                 51016 =
2018-06-19 21:53 METAR KPOU 200153Z AUTO 00000KT 10SM CLR 18/14 A2987 RMK AO2 SLP112 T01830139 =
2018-06-19 20:53 METAR KPOU 200053Z 00000KT 10SM CLR 22/13 A2985 RMK AO2 SLP103 T02170128 =
2018-06-19 19:53 METAR KPOU 192353Z 03004KT 10SM CLR 25/12 A2983 RMK AO2 SLP098 T02500117 10294
                 20250 53011 =
2018-06-19 18:53 METAR KPOU 192253Z 03011KT 10SM CLR 27/11 A2982 RMK AO2 SLP092 T02670111 =
2018-06-19 17:53 METAR KPOU 192153Z 03009KT 10SM CLR 28/11 A2981 RMK AO2 SLP090 T02830106 =
2018-06-19 16:53 METAR KPOU 192053Z 36009G14KT 10SM CLR 28/09 A2980 RMK AO2 SLP087 T02830089
                 53002 =
2018-06-19 15:53 METAR KPOU 191953Z 34009G16KT 10SM CLR 29/08 A2980 RMK AO2 SLP086 T02890083 =
2018-06-19 14:53 METAR KPOU 191853Z 35008G18KT 10SM CLR 29/09 A2980 RMK AO2 SLP086 T02890094 =
2018-06-19 13:53 METAR KPOU 191753Z 01007KT 10SM CLR 28/12 A2980 RMK AO2 SLP086 T02830117 10289
                 20233 58005 =
2018-06-19 12:53 METAR KPOU 191653Z 34010G15KT 10SM CLR 28/13 A2980 RMK AO2 SLP088 T02830133 =
2018-06-19 11:53 METAR KPOU 191553Z 02012KT 10SM CLR 27/15 A2981 RMK AO2 SLP090 T02670150 =
2018-06-19 10:53 METAR KPOU 191453Z 36011G19KT 10SM CLR 26/14 A2981 RMK AO2 SLP091 T02560144
                 51010 =
2018-06-19 09:53 METAR KPOU 191353Z 35012G21KT 10SM FEW035 24/16 A2981 RMK AO2 SLP089 T02440156 =
2018-06-19 08:53 METAR KPOU 191253Z 35007KT 10SM FEW031 24/19 A2980 RMK AO2 SLP086 T02440189 =
2018-06-19 07:53 METAR KPOU 191153Z 36009KT 10SM SCT047 24/19 A2978 RMK AO2 SLP081 60001 70024
                 T02390194 10239 20228 53023 =
2018-06-19 06:53 METAR KPOU 191053Z AUTO 01003KT 10SM FEW030 BKN046 24/22 A2976 RMK AO2 SLP072
                 T02390217 =
2018-06-19 05:53 METAR KPOU 190953Z AUTO 32003KT 3SM BR FEW022 FEW033 SCT055 23/22 A2973 RMK AO2
                 SLP063 T02280217 =
2018-06-19 04:53 METAR KPOU 190853Z AUTO 00000KT 8SM BKN045 BKN060 OVC100 23/22 A2971 RMK AO2
                 SLP057 60001 T02330222 55003 =
2018-06-19 03:53 METAR KPOU 190753Z AUTO 17003KT 8SM BKN055 BKN070 BKN085 23/22 A2970 RMK AO2
                 SLP052 T02330222 =

Support USWX by starting your Amazon purchase here.